sensor_id;sensor_type;location;lat;lon;timestamp;P1;durP1;ratioP1;P2;durP2;ratioP2
57225;SDS011;43082;43.568;22.256;2023-07-28T00:01:00;4.07;;;1.63;;
57225;SDS011;43082;43.568;22.256;2023-07-28T00:03:26;4.15;;;1.40;;
57225;SDS011;43082;43.568;22.256;2023-07-28T00:05:51;4.80;;;1.45;;
57225;SDS011;43082;43.568;22.256;2023-07-28T00:08:17;4.30;;;1.80;;
57225;SDS011;43082;43.568;22.256;2023-07-28T00:10:42;3.58;;;1.30;;
57225;SDS011;43082;43.568;22.256;2023-07-28T00:13:08;4.70;;;1.58;;
57225;SDS011;43082;43.568;22.256;2023-07-28T00:15:33;4.70;;;1.63;;
57225;SDS011;43082;43.568;22.256;2023-07-28T00:17:59;4.90;;;1.70;;
57225;SDS011;43082;43.568;22.256;2023-07-28T00:20:26;9.35;;;4.70;;
57225;SDS011;43082;43.568;22.256;2023-07-28T00:22:52;13.93;;;7.53;;
57225;SDS011;43082;43.568;22.256;2023-07-28T00:25:18;11.57;;;7.03;;
57225;SDS011;43082;43.568;22.256;2023-07-28T00:27:43;6.25;;;3.10;;
57225;SDS011;43082;43.568;22.256;2023-07-28T00:30:09;9.95;;;3.92;;
57225;SDS011;43082;43.568;22.256;2023-07-28T00:32:36;5.93;;;2.50;;
57225;SDS011;43082;43.568;22.256;2023-07-28T00:35:01;7.38;;;3.13;;
57225;SDS011;43082;43.568;22.256;2023-07-28T00:37:28;4.93;;;2.03;;
57225;SDS011;43082;43.568;22.256;2023-07-28T00:39:53;5.85;;;1.42;;
57225;SDS011;43082;43.568;22.256;2023-07-28T00:42:19;4.53;;;1.38;;
57225;SDS011;43082;43.568;22.256;2023-07-28T00:44:44;4.15;;;1.50;;
57225;SDS011;43082;43.568;22.256;2023-07-28T00:47:09;3.25;;;1.30;;
57225;SDS011;43082;43.568;22.256;2023-07-28T00:49:35;3.65;;;1.45;;
57225;SDS011;43082;43.568;22.256;2023-07-28T00:52:00;4.40;;;1.50;;
57225;SDS011;43082;43.568;22.256;2023-07-28T00:54:26;2.92;;;1.30;;
57225;SDS011;43082;43.568;22.256;2023-07-28T00:56:51;3.97;;;1.50;;
57225;SDS011;43082;43.568;22.256;2023-07-28T00:59:17;6.60;;;1.60;;
57225;SDS011;43082;43.568;22.256;2023-07-28T01:01:43;3.95;;;1.20;;
57225;SDS011;43082;43.568;22.256;2023-07-28T01:04:08;4.57;;;1.25;;
57225;SDS011;43082;43.568;22.256;2023-07-28T01:09:06;4.72;;;1.63;;
57225;SDS011;43082;43.568;22.256;2023-07-28T01:11:54;5.30;;;1.80;;
57225;SDS011;43082;43.568;22.256;2023-07-28T01:14:20;3.97;;;1.42;;
57225;SDS011;43082;43.568;22.256;2023-07-28T01:16:46;3.80;;;1.27;;
57225;SDS011;43082;43.568;22.256;2023-07-28T01:19:11;4.15;;;1.42;;
57225;SDS011;43082;43.568;22.256;2023-07-28T01:21:37;7.15;;;1.52;;
57225;SDS011;43082;43.568;22.256;2023-07-28T01:24:36;3.45;;;1.27;;
57225;SDS011;43082;43.568;22.256;2023-07-28T01:27:24;4.90;;;1.53;;
57225;SDS011;43082;43.568;22.256;2023-07-28T01:29:50;3.33;;;1.40;;
57225;SDS011;43082;43.568;22.256;2023-07-28T01:32:15;3.70;;;1.20;;
57225;SDS011;43082;43.568;22.256;2023-07-28T01:34:41;6.47;;;1.60;;
57225;SDS011;43082;43.568;22.256;2023-07-28T01:37:06;4.47;;;1.27;;
57225;SDS011;43082;43.568;22.256;2023-07-28T01:39:31;4.28;;;1.30;;
57225;SDS011;43082;43.568;22.256;2023-07-28T01:41:58;3.33;;;1.30;;
57225;SDS011;43082;43.568;22.256;2023-07-28T01:44:24;5.18;;;1.50;;
57225;SDS011;43082;43.568;22.256;2023-07-28T01:46:49;4.38;;;1.40;;
57225;SDS011;43082;43.568;22.256;2023-07-28T01:49:14;5.00;;;2.25;;
57225;SDS011;43082;43.568;22.256;2023-07-28T01:51:40;4.00;;;1.50;;
57225;SDS011;43082;43.568;22.256;2023-07-28T01:54:05;4.13;;;1.50;;
57225;SDS011;43082;43.568;22.256;2023-07-28T01:56:32;4.78;;;1.30;;
57225;SDS011;43082;43.568;22.256;2023-07-28T01:58:57;6.10;;;1.33;;
57225;SDS011;43082;43.568;22.256;2023-07-28T02:01:23;5.40;;;1.30;;
57225;SDS011;43082;43.568;22.256;2023-07-28T02:03:48;5.88;;;1.40;;
57225;SDS011;43082;43.568;22.256;2023-07-28T02:06:14;4.07;;;1.40;;
57225;SDS011;43082;43.568;22.256;2023-07-28T02:08:39;5.78;;;1.40;;
57225;SDS011;43082;43.568;22.256;2023-07-28T02:11:04;4.13;;;1.40;;
57225;SDS011;43082;43.568;22.256;2023-07-28T02:13:30;3.25;;;1.48;;
57225;SDS011;43082;43.568;22.256;2023-07-28T02:15:55;5.70;;;1.50;;
57225;SDS011;43082;43.568;22.256;2023-07-28T02:18:21;2.88;;;1.33;;
57225;SDS011;43082;43.568;22.256;2023-07-28T02:20:49;3.72;;;1.30;;
57225;SDS011;43082;43.568;22.256;2023-07-28T02:23:15;5.20;;;1.40;;
57225;SDS011;43082;43.568;22.256;2023-07-28T02:25:40;6.35;;;1.58;;
57225;SDS011;43082;43.568;22.256;2023-07-28T02:28:06;3.35;;;1.30;;
57225;SDS011;43082;43.568;22.256;2023-07-28T02:30:33;4.00;;;1.38;;
57225;SDS011;43082;43.568;22.256;2023-07-28T02:32:59;4.38;;;1.30;;
57225;SDS011;43082;43.568;22.256;2023-07-28T02:35:24;4.25;;;1.50;;
57225;SDS011;43082;43.568;22.256;2023-07-28T02:37:49;4.72;;;1.42;;
57225;SDS011;43082;43.568;22.256;2023-07-28T02:40:15;5.47;;;1.30;;
57225;SDS011;43082;43.568;22.256;2023-07-28T02:42:40;4.20;;;1.50;;
57225;SDS011;43082;43.568;22.256;2023-07-28T02:45:06;2.85;;;1.20;;
57225;SDS011;43082;43.568;22.256;2023-07-28T02:47:32;7.25;;;1.33;;
57225;SDS011;43082;43.568;22.256;2023-07-28T02:49:57;3.95;;;1.38;;
57225;SDS011;43082;43.568;22.256;2023-07-28T02:52:23;5.15;;;1.40;;
57225;SDS011;43082;43.568;22.256;2023-07-28T02:54:48;3.47;;;1.38;;
57225;SDS011;43082;43.568;22.256;2023-07-28T02:57:15;4.88;;;1.58;;
57225;SDS011;43082;43.568;22.256;2023-07-28T02:59:40;6.30;;;1.40;;
57225;SDS011;43082;43.568;22.256;2023-07-28T03:02:06;4.30;;;1.40;;
57225;SDS011;43082;43.568;22.256;2023-07-28T03:04:31;5.75;;;1.35;;
57225;SDS011;43082;43.568;22.256;2023-07-28T03:06:57;3.95;;;1.50;;
57225;SDS011;43082;43.568;22.256;2023-07-28T03:09:22;6.78;;;1.70;;
57225;SDS011;43082;43.568;22.256;2023-07-28T03:11:48;5.13;;;1.40;;
57225;SDS011;43082;43.568;22.256;2023-07-28T03:14:13;4.05;;;1.50;;
57225;SDS011;43082;43.568;22.256;2023-07-28T03:16:39;3.63;;;1.25;;
57225;SDS011;43082;43.568;22.256;2023-07-28T03:19:06;5.97;;;1.50;;
57225;SDS011;43082;43.568;22.256;2023-07-28T03:21:31;4.85;;;1.50;;
57225;SDS011;43082;43.568;22.256;2023-07-28T03:23:57;3.90;;;1.35;;
57225;SDS011;43082;43.568;22.256;2023-07-28T03:26:22;4.25;;;1.40;;
57225;SDS011;43082;43.568;22.256;2023-07-28T03:28:47;3.05;;;1.40;;
57225;SDS011;43082;43.568;22.256;2023-07-28T03:31:13;5.68;;;1.80;;
57225;SDS011;43082;43.568;22.256;2023-07-28T03:33:38;4.30;;;1.40;;
57225;SDS011;43082;43.568;22.256;2023-07-28T03:36:04;4.88;;;1.50;;
57225;SDS011;43082;43.568;22.256;2023-07-28T03:38:29;4.18;;;1.60;;
57225;SDS011;43082;43.568;22.256;2023-07-28T03:40:55;5.22;;;1.48;;
57225;SDS011;43082;43.568;22.256;2023-07-28T03:43:20;3.35;;;1.42;;
57225;SDS011;43082;43.568;22.256;2023-07-28T03:45:46;4.35;;;1.40;;
57225;SDS011;43082;43.568;22.256;2023-07-28T03:48:12;4.20;;;1.67;;
57225;SDS011;43082;43.568;22.256;2023-07-28T03:50:38;7.80;;;1.88;;
57225;SDS011;43082;43.568;22.256;2023-07-28T03:53:03;5.13;;;1.60;;
57225;SDS011;43082;43.568;22.256;2023-07-28T03:55:29;4.20;;;1.67;;
57225;SDS011;43082;43.568;22.256;2023-07-28T03:57:54;4.32;;;1.70;;
57225;SDS011;43082;43.568;22.256;2023-07-28T04:00:20;5.00;;;1.73;;
57225;SDS011;43082;43.568;22.256;2023-07-28T04:02:45;3.85;;;1.50;;
57225;SDS011;43082;43.568;22.256;2023-07-28T04:05:11;4.20;;;1.67;;
57225;SDS011;43082;43.568;22.256;2023-07-28T04:07:37;4.35;;;1.50;;
57225;SDS011;43082;43.568;22.256;2023-07-28T04:10:02;5.75;;;1.80;;
57225;SDS011;43082;43.568;22.256;2023-07-28T04:12:28;6.90;;;1.80;;
57225;SDS011;43082;43.568;22.256;2023-07-28T04:14:54;6.22;;;2.00;;
57225;SDS011;43082;43.568;22.256;2023-07-28T04:17:19;4.38;;;1.48;;
57225;SDS011;43082;43.568;22.256;2023-07-28T04:19:45;7.57;;;1.55;;
57225;SDS011;43082;43.568;22.256;2023-07-28T04:22:10;4.75;;;1.77;;
57225;SDS011;43082;43.568;22.256;2023-07-28T04:24:36;4.72;;;1.70;;
57225;SDS011;43082;43.568;22.256;2023-07-28T04:27:01;5.45;;;1.90;;
57225;SDS011;43082;43.568;22.256;2023-07-28T04:29:26;4.43;;;1.83;;
57225;SDS011;43082;43.568;22.256;2023-07-28T04:31:52;9.48;;;2.10;;
57225;SDS011;43082;43.568;22.256;2023-07-28T04:34:19;5.90;;;1.90;;
57225;SDS011;43082;43.568;22.256;2023-07-28T04:36:44;8.13;;;2.00;;
57225;SDS011;43082;43.568;22.256;2023-07-28T04:39:10;8.98;;;2.10;;
57225;SDS011;43082;43.568;22.256;2023-07-28T04:41:35;4.07;;;1.60;;
57225;SDS011;43082;43.568;22.256;2023-07-28T04:44:01;5.47;;;2.00;;
57225;SDS011;43082;43.568;22.256;2023-07-28T04:46:26;5.18;;;2.10;;
57225;SDS011;43082;43.568;22.256;2023-07-28T04:48:53;7.30;;;2.20;;
57225;SDS011;43082;43.568;22.256;2023-07-28T04:51:19;8.98;;;2.10;;
57225;SDS011;43082;43.568;22.256;2023-07-28T04:53:45;4.53;;;1.00;;
57225;SDS011;43082;43.568;22.256;2023-07-28T04:56:10;6.35;;;1.60;;
57225;SDS011;43082;43.568;22.256;2023-07-28T04:58:35;5.28;;;1.73;;
57225;SDS011;43082;43.568;22.256;2023-07-28T05:01:01;15.52;;;3.10;;
57225;SDS011;43082;43.568;22.256;2023-07-28T05:03:27;5.72;;;2.15;;
57225;SDS011;43082;43.568;22.256;2023-07-28T05:05:53;7.90;;;2.40;;
57225;SDS011;43082;43.568;22.256;2023-07-28T05:08:18;6.65;;;2.10;;
57225;SDS011;43082;43.568;22.256;2023-07-28T05:10:44;5.65;;;2.20;;
57225;SDS011;43082;43.568;22.256;2023-07-28T05:13:09;6.25;;;2.38;;
57225;SDS011;43082;43.568;22.256;2023-07-28T05:15:34;6.40;;;2.25;;
57225;SDS011;43082;43.568;22.256;2023-07-28T05:18:00;4.95;;;1.90;;
57225;SDS011;43082;43.568;22.256;2023-07-28T05:20:25;5.65;;;2.00;;
57225;SDS011;43082;43.568;22.256;2023-07-28T05:22:51;7.10;;;2.30;;
57225;SDS011;43082;43.568;22.256;2023-07-28T05:25:19;5.88;;;2.17;;
57225;SDS011;43082;43.568;22.256;2023-07-28T05:27:45;5.00;;;2.20;;
57225;SDS011;43082;43.568;22.256;2023-07-28T05:30:10;6.30;;;2.30;;
57225;SDS011;43082;43.568;22.256;2023-07-28T05:32:36;6.90;;;2.17;;
57225;SDS011;43082;43.568;22.256;2023-07-28T05:35:01;8.35;;;3.55;;
57225;SDS011;43082;43.568;22.256;2023-07-28T05:37:26;5.75;;;2.60;;
57225;SDS011;43082;43.568;22.256;2023-07-28T05:39:52;6.15;;;2.78;;
57225;SDS011;43082;43.568;22.256;2023-07-28T05:42:17;7.00;;;2.70;;
57225;SDS011;43082;43.568;22.256;2023-07-28T05:44:43;5.07;;;2.20;;
57225;SDS011;43082;43.568;22.256;2023-07-28T05:47:08;8.18;;;2.60;;
57225;SDS011;43082;43.568;22.256;2023-07-28T05:49:34;6.20;;;2.60;;
57225;SDS011;43082;43.568;22.256;2023-07-28T05:52:00;8.18;;;3.70;;
57225;SDS011;43082;43.568;22.256;2023-07-28T05:54:26;7.65;;;3.20;;
57225;SDS011;43082;43.568;22.256;2023-07-28T05:56:51;7.03;;;3.30;;
57225;SDS011;43082;43.568;22.256;2023-07-28T05:59:16;10.48;;;5.15;;
57225;SDS011;43082;43.568;22.256;2023-07-28T06:01:42;9.35;;;4.20;;
57225;SDS011;43082;43.568;22.256;2023-07-28T06:04:07;6.78;;;2.80;;
57225;SDS011;43082;43.568;22.256;2023-07-28T06:06:33;11.57;;;2.80;;
57225;SDS011;43082;43.568;22.256;2023-07-28T06:08:58;7.38;;;2.63;;
57225;SDS011;43082;43.568;22.256;2023-07-28T06:11:24;7.50;;;2.67;;
57225;SDS011;43082;43.568;22.256;2023-07-28T06:13:49;5.63;;;2.00;;
57225;SDS011;43082;43.568;22.256;2023-07-28T06:16:15;6.68;;;2.17;;
57225;SDS011;43082;43.568;22.256;2023-07-28T06:18:40;5.95;;;2.75;;
57225;SDS011;43082;43.568;22.256;2023-07-28T06:21:06;7.72;;;2.55;;
57225;SDS011;43082;43.568;22.256;2023-07-28T06:23:31;7.57;;;2.85;;
57225;SDS011;43082;43.568;22.256;2023-07-28T06:25:57;7.03;;;3.17;;
57225;SDS011;43082;43.568;22.256;2023-07-28T06:28:22;7.95;;;3.33;;
57225;SDS011;43082;43.568;22.256;2023-07-28T06:30:52;7.70;;;3.40;;
57225;SDS011;43082;43.568;22.256;2023-07-28T06:33:22;5.80;;;2.63;;
57225;SDS011;43082;43.568;22.256;2023-07-28T06:35:47;9.02;;;2.38;;
57225;SDS011;43082;43.568;22.256;2023-07-28T06:38:13;5.97;;;2.63;;
57225;SDS011;43082;43.568;22.256;2023-07-28T06:40:38;6.68;;;2.72;;
57225;SDS011;43082;43.568;22.256;2023-07-28T06:43:04;7.47;;;2.50;;
57225;SDS011;43082;43.568;22.256;2023-07-28T06:45:29;6.68;;;2.30;;
57225;SDS011;43082;43.568;22.256;2023-07-28T06:47:54;10.68;;;2.00;;
57225;SDS011;43082;43.568;22.256;2023-07-28T06:50:20;5.57;;;2.10;;
57225;SDS011;43082;43.568;22.256;2023-07-28T06:52:45;5.85;;;2.00;;
57225;SDS011;43082;43.568;22.256;2023-07-28T06:55:13;5.95;;;2.08;;
57225;SDS011;43082;43.568;22.256;2023-07-28T06:57:39;5.50;;;1.90;;
57225;SDS011;43082;43.568;22.256;2023-07-28T07:00:04;6.35;;;1.90;;
57225;SDS011;43082;43.568;22.256;2023-07-28T07:02:30;4.10;;;1.77;;
57225;SDS011;43082;43.568;22.256;2023-07-28T07:04:56;4.90;;;1.52;;
57225;SDS011;43082;43.568;22.256;2023-07-28T07:07:21;6.20;;;1.90;;
57225;SDS011;43082;43.568;22.256;2023-07-28T07:09:47;8.88;;;1.83;;
57225;SDS011;43082;43.568;22.256;2023-07-28T07:12:12;5.63;;;1.90;;
57225;SDS011;43082;43.568;22.256;2023-07-28T07:14:38;4.10;;;1.67;;
57225;SDS011;43082;43.568;22.256;2023-07-28T07:17:04;6.88;;;1.88;;
57225;SDS011;43082;43.568;22.256;2023-07-28T07:19:30;6.45;;;2.10;;
57225;SDS011;43082;43.568;22.256;2023-07-28T07:21:55;8.73;;;1.80;;
57225;SDS011;43082;43.568;22.256;2023-07-28T07:24:21;6.18;;;1.60;;
57225;SDS011;43082;43.568;22.256;2023-07-28T07:26:47;3.85;;;1.58;;
57225;SDS011;43082;43.568;22.256;2023-07-28T07:29:12;3.80;;;1.40;;
57225;SDS011;43082;43.568;22.256;2023-07-28T07:31:38;4.38;;;1.70;;
57225;SDS011;43082;43.568;22.256;2023-07-28T07:34:03;4.45;;;1.70;;
57225;SDS011;43082;43.568;22.256;2023-07-28T07:36:29;4.05;;;1.58;;
57225;SDS011;43082;43.568;22.256;2023-07-28T07:38:54;3.83;;;1.60;;
57225;SDS011;43082;43.568;22.256;2023-07-28T07:41:20;5.72;;;1.80;;
57225;SDS011;43082;43.568;22.256;2023-07-28T07:43:50;4.20;;;1.60;;
57225;SDS011;43082;43.568;22.256;2023-07-28T07:46:17;6.57;;;1.90;;
57225;SDS011;43082;43.568;22.256;2023-07-28T07:48:44;6.40;;;1.70;;
57225;SDS011;43082;43.568;22.256;2023-07-28T07:51:10;6.63;;;2.67;;
57225;SDS011;43082;43.568;22.256;2023-07-28T07:53:36;4.97;;;2.13;;
57225;SDS011;43082;43.568;22.256;2023-07-28T07:56:02;9.52;;;1.95;;
57225;SDS011;43082;43.568;22.256;2023-07-28T07:58:28;4.97;;;1.90;;
57225;SDS011;43082;43.568;22.256;2023-07-28T08:00:54;5.57;;;1.77;;
57225;SDS011;43082;43.568;22.256;2023-07-28T08:03:20;7.07;;;1.80;;
57225;SDS011;43082;43.568;22.256;2023-07-28T08:05:45;4.60;;;1.85;;
57225;SDS011;43082;43.568;22.256;2023-07-28T08:08:11;5.68;;;1.92;;
57225;SDS011;43082;43.568;22.256;2023-07-28T08:10:37;4.93;;;2.00;;
57225;SDS011;43082;43.568;22.256;2023-07-28T08:13:04;8.10;;;2.50;;
57225;SDS011;43082;43.568;22.256;2023-07-28T08:15:29;6.70;;;2.50;;
57225;SDS011;43082;43.568;22.256;2023-07-28T08:17:55;5.97;;;1.95;;
57225;SDS011;43082;43.568;22.256;2023-07-28T08:20:20;5.72;;;2.25;;
57225;SDS011;43082;43.568;22.256;2023-07-28T08:22:45;5.00;;;1.70;;
57225;SDS011;43082;43.568;22.256;2023-07-28T08:25:11;5.70;;;2.05;;
57225;SDS011;43082;43.568;22.256;2023-07-28T08:27:36;5.07;;;2.08;;
57225;SDS011;43082;43.568;22.256;2023-07-28T08:30:02;6.03;;;2.30;;
57225;SDS011;43082;43.568;22.256;2023-07-28T08:32:28;6.30;;;2.05;;
57225;SDS011;43082;43.568;22.256;2023-07-28T08:34:54;6.05;;;2.50;;
57225;SDS011;43082;43.568;22.256;2023-07-28T08:37:20;5.28;;;2.30;;
57225;SDS011;43082;43.568;22.256;2023-07-28T08:39:45;6.13;;;2.42;;
57225;SDS011;43082;43.568;22.256;2023-07-28T08:42:11;7.03;;;2.25;;
57225;SDS011;43082;43.568;22.256;2023-07-28T08:44:36;11.25;;;2.20;;
57225;SDS011;43082;43.568;22.256;2023-07-28T08:47:02;5.85;;;2.10;;
57225;SDS011;43082;43.568;22.256;2023-07-28T08:49:29;7.82;;;2.65;;
57225;SDS011;43082;43.568;22.256;2023-07-28T08:52:00;6.63;;;2.40;;
57225;SDS011;43082;43.568;22.256;2023-07-28T08:54:27;5.20;;;2.17;;
57225;SDS011;43082;43.568;22.256;2023-07-28T08:56:52;5.38;;;2.00;;
57225;SDS011;43082;43.568;22.256;2023-07-28T08:59:25;4.57;;;1.80;;
57225;SDS011;43082;43.568;22.256;2023-07-28T09:01:55;4.43;;;1.90;;
57225;SDS011;43082;43.568;22.256;2023-07-28T09:04:21;4.85;;;1.77;;
57225;SDS011;43082;43.568;22.256;2023-07-28T09:06:48;6.97;;;1.77;;
57225;SDS011;43082;43.568;22.256;2023-07-28T09:09:14;3.97;;;1.77;;
57225;SDS011;43082;43.568;22.256;2023-07-28T09:11:44;6.75;;;1.75;;
57225;SDS011;43082;43.568;22.256;2023-07-28T09:14:11;4.88;;;1.80;;
57225;SDS011;43082;43.568;22.256;2023-07-28T09:16:37;5.32;;;1.90;;
57225;SDS011;43082;43.568;22.256;2023-07-28T09:19:07;4.63;;;1.60;;
57225;SDS011;43082;43.568;22.256;2023-07-28T09:21:33;5.55;;;1.85;;
57225;SDS011;43082;43.568;22.256;2023-07-28T09:24:05;5.43;;;1.90;;
57225;SDS011;43082;43.568;22.256;2023-07-28T09:26:41;5.97;;;1.90;;
57225;SDS011;43082;43.568;22.256;2023-07-28T09:31:42;5.75;;;1.73;;
57225;SDS011;43082;43.568;22.256;2023-07-28T09:34:11;7.50;;;2.00;;
57225;SDS011;43082;43.568;22.256;2023-07-28T09:36:39;5.82;;;1.90;;
57225;SDS011;43082;43.568;22.256;2023-07-28T09:39:05;4.90;;;2.20;;
57225;SDS011;43082;43.568;22.256;2023-07-28T09:41:34;5.38;;;1.83;;
57225;SDS011;43082;43.568;22.256;2023-07-28T09:44:01;7.68;;;3.20;;
57225;SDS011;43082;43.568;22.256;2023-07-28T09:46:28;7.32;;;2.22;;
57225;SDS011;43082;43.568;22.256;2023-07-28T09:48:56;7.32;;;2.13;;
57225;SDS011;43082;43.568;22.256;2023-07-28T09:51:22;6.82;;;2.20;;
57225;SDS011;43082;43.568;22.256;2023-07-28T09:53:51;5.40;;;2.25;;
57225;SDS011;43082;43.568;22.256;2023-07-28T09:56:22;7.40;;;2.10;;
57225;SDS011;43082;43.568;22.256;2023-07-28T09:58:52;6.72;;;2.10;;
57225;SDS011;43082;43.568;22.256;2023-07-28T10:01:18;5.53;;;2.60;;
57225;SDS011;43082;43.568;22.256;2023-07-28T10:03:45;8.10;;;2.60;;
57225;SDS011;43082;43.568;22.256;2023-07-28T10:06:10;5.57;;;2.08;;
57225;SDS011;43082;43.568;22.256;2023-07-28T10:08:37;4.93;;;1.80;;
57225;SDS011;43082;43.568;22.256;2023-07-28T10:11:02;4.05;;;1.77;;
57225;SDS011;43082;43.568;22.256;2023-07-28T10:13:33;5.03;;;2.10;;
57225;SDS011;43082;43.568;22.256;2023-07-28T10:16:04;5.70;;;1.80;;
57225;SDS011;43082;43.568;22.256;2023-07-28T10:18:30;5.95;;;2.20;;
57225;SDS011;43082;43.568;22.256;2023-07-28T10:21:00;5.45;;;2.17;;
57225;SDS011;43082;43.568;22.256;2023-07-28T10:23:33;5.40;;;2.00;;
57225;SDS011;43082;43.568;22.256;2023-07-28T10:26:02;7.40;;;1.88;;
57225;SDS011;43082;43.568;22.256;2023-07-28T10:28:34;5.28;;;2.00;;
57225;SDS011;43082;43.568;22.256;2023-07-28T10:31:06;6.75;;;2.35;;
57225;SDS011;43082;43.568;22.256;2023-07-28T10:33:33;6.90;;;1.85;;
57225;SDS011;43082;43.568;22.256;2023-07-28T10:41:34;4.68;;;2.00;;
57225;SDS011;43082;43.568;22.256;2023-07-28T10:44:00;6.03;;;2.08;;
57225;SDS011;43082;43.568;22.256;2023-07-28T10:46:26;5.28;;;2.10;;
57225;SDS011;43082;43.568;22.256;2023-07-28T10:48:51;7.78;;;2.42;;
57225;SDS011;43082;43.568;22.256;2023-07-28T10:51:21;4.97;;;2.10;;
57225;SDS011;43082;43.568;22.256;2023-07-28T10:53:56;4.18;;;1.80;;
57225;SDS011;43082;43.568;22.256;2023-07-28T10:56:23;4.28;;;1.92;;
57225;SDS011;43082;43.568;22.256;2023-07-28T10:59:01;4.88;;;2.00;;
57225;SDS011;43082;43.568;22.256;2023-07-28T11:01:35;6.10;;;1.77;;
57225;SDS011;43082;43.568;22.256;2023-07-28T11:06:37;4.38;;;1.83;;
57225;SDS011;43082;43.568;22.256;2023-07-28T11:09:05;4.65;;;1.85;;
57225;SDS011;43082;43.568;22.256;2023-07-28T11:11:31;4.88;;;1.80;;
57225;SDS011;43082;43.568;22.256;2023-07-28T11:13:56;5.57;;;1.80;;
57225;SDS011;43082;43.568;22.256;2023-07-28T11:16:23;6.43;;;1.90;;
57225;SDS011;43082;43.568;22.256;2023-07-28T11:18:48;4.70;;;1.67;;
57225;SDS011;43082;43.568;22.256;2023-07-28T11:21:16;4.32;;;1.70;;
57225;SDS011;43082;43.568;22.256;2023-07-28T11:23:45;4.63;;;1.80;;
57225;SDS011;43082;43.568;22.256;2023-07-28T11:26:11;6.90;;;1.90;;
57225;SDS011;43082;43.568;22.256;2023-07-28T11:28:37;6.05;;;2.47;;
57225;SDS011;43082;43.568;22.256;2023-07-28T11:31:03;5.32;;;1.98;;
57225;SDS011;43082;43.568;22.256;2023-07-28T11:33:29;4.55;;;1.90;;
57225;SDS011;43082;43.568;22.256;2023-07-28T11:35:54;5.68;;;2.10;;
57225;SDS011;43082;43.568;22.256;2023-07-28T11:38:20;6.43;;;2.22;;
57225;SDS011;43082;43.568;22.256;2023-07-28T11:40:45;4.35;;;1.65;;
57225;SDS011;43082;43.568;22.256;2023-07-28T11:43:11;5.05;;;2.35;;
57225;SDS011;43082;43.568;22.256;2023-07-28T11:45:37;5.80;;;2.17;;
57225;SDS011;43082;43.568;22.256;2023-07-28T11:50:29;6.80;;;1.90;;
57225;SDS011;43082;43.568;22.256;2023-07-28T11:52:59;4.07;;;1.60;;
57225;SDS011;43082;43.568;22.256;2023-07-28T11:55:24;4.03;;;1.77;;
57225;SDS011;43082;43.568;22.256;2023-07-28T11:57:51;5.15;;;1.98;;
57225;SDS011;43082;43.568;22.256;2023-07-28T12:00:17;7.68;;;2.42;;
57225;SDS011;43082;43.568;22.256;2023-07-28T12:02:42;4.65;;;2.00;;
57225;SDS011;43082;43.568;22.256;2023-07-28T12:05:11;5.95;;;2.03;;
57225;SDS011;43082;43.568;22.256;2023-07-28T12:07:38;5.13;;;2.00;;
57225;SDS011;43082;43.568;22.256;2023-07-28T12:10:03;7.95;;;1.77;;
57225;SDS011;43082;43.568;22.256;2023-07-28T12:12:44;6.13;;;2.00;;
57225;SDS011;43082;43.568;22.256;2023-07-28T12:15:21;5.25;;;1.90;;
57225;SDS011;43082;43.568;22.256;2023-07-28T12:18:05;5.95;;;2.00;;
57225;SDS011;43082;43.568;22.256;2023-07-28T12:20:41;6.18;;;2.15;;
57225;SDS011;43082;43.568;22.256;2023-07-28T12:23:11;5.05;;;1.80;;
57225;SDS011;43082;43.568;22.256;2023-07-28T12:25:46;5.00;;;2.15;;
57225;SDS011;43082;43.568;22.256;2023-07-28T12:28:13;6.40;;;1.73;;
57225;SDS011;43082;43.568;22.256;2023-07-28T12:30:38;5.78;;;1.90;;
57225;SDS011;43082;43.568;22.256;2023-07-28T12:33:04;5.82;;;2.28;;
57225;SDS011;43082;43.568;22.256;2023-07-28T12:35:31;6.72;;;2.90;;
57225;SDS011;43082;43.568;22.256;2023-07-28T12:37:59;6.13;;;2.10;;
57225;SDS011;43082;43.568;22.256;2023-07-28T12:40:26;4.43;;;1.85;;
57225;SDS011;43082;43.568;22.256;2023-07-28T12:42:54;4.97;;;1.90;;
57225;SDS011;43082;43.568;22.256;2023-07-28T12:45:20;5.22;;;2.10;;
57225;SDS011;43082;43.568;22.256;2023-07-28T12:47:46;4.88;;;2.05;;
57225;SDS011;43082;43.568;22.256;2023-07-28T12:50:11;4.38;;;2.00;;
57225;SDS011;43082;43.568;22.256;2023-07-28T12:52:37;7.93;;;2.70;;
57225;SDS011;43082;43.568;22.256;2023-07-28T12:55:02;6.05;;;2.30;;
57225;SDS011;43082;43.568;22.256;2023-07-28T12:57:28;5.35;;;2.08;;
57225;SDS011;43082;43.568;22.256;2023-07-28T12:59:54;5.38;;;2.08;;
57225;SDS011;43082;43.568;22.256;2023-07-28T13:02:19;7.45;;;2.45;;
57225;SDS011;43082;43.568;22.256;2023-07-28T13:04:45;7.57;;;2.30;;
57225;SDS011;43082;43.568;22.256;2023-07-28T13:07:11;13.10;;;2.80;;
57225;SDS011;43082;43.568;22.256;2023-07-28T13:09:36;4.35;;;1.88;;
57225;SDS011;43082;43.568;22.256;2023-07-28T13:12:02;7.50;;;3.13;;
57225;SDS011;43082;43.568;22.256;2023-07-28T13:14:29;5.38;;;2.00;;
57225;SDS011;43082;43.568;22.256;2023-07-28T13:16:55;6.00;;;2.83;;
57225;SDS011;43082;43.568;22.256;2023-07-28T13:19:20;7.68;;;3.40;;
57225;SDS011;43082;43.568;22.256;2023-07-28T13:21:45;5.38;;;2.13;;
57225;SDS011;43082;43.568;22.256;2023-07-28T13:24:11;5.28;;;2.33;;
57225;SDS011;43082;43.568;22.256;2023-07-28T13:26:36;5.15;;;1.90;;
57225;SDS011;43082;43.568;22.256;2023-07-28T13:29:02;5.45;;;2.10;;
57225;SDS011;43082;43.568;22.256;2023-07-28T13:31:27;3.53;;;1.67;;
57225;SDS011;43082;43.568;22.256;2023-07-28T13:33:53;5.57;;;1.98;;
57225;SDS011;43082;43.568;22.256;2023-07-28T13:36:19;8.75;;;2.10;;
57225;SDS011;43082;43.568;22.256;2023-07-28T13:38:44;4.90;;;1.83;;
57225;SDS011;43082;43.568;22.256;2023-07-28T13:41:10;3.90;;;1.80;;
57225;SDS011;43082;43.568;22.256;2023-07-28T13:43:36;6.00;;;2.15;;
57225;SDS011;43082;43.568;22.256;2023-07-28T13:46:05;5.72;;;1.90;;
57225;SDS011;43082;43.568;22.256;2023-07-28T13:48:31;4.65;;;1.98;;
57225;SDS011;43082;43.568;22.256;2023-07-28T13:50:57;6.28;;;1.98;;
57225;SDS011;43082;43.568;22.256;2023-07-28T13:53:23;4.80;;;1.95;;
57225;SDS011;43082;43.568;22.256;2023-07-28T13:55:49;5.45;;;1.88;;
57225;SDS011;43082;43.568;22.256;2023-07-28T13:58:14;4.72;;;2.08;;
57225;SDS011;43082;43.568;22.256;2023-07-28T14:00:40;5.22;;;2.13;;
57225;SDS011;43082;43.568;22.256;2023-07-28T14:03:05;3.78;;;1.70;;
57225;SDS011;43082;43.568;22.256;2023-07-28T14:05:31;4.53;;;1.90;;
57225;SDS011;43082;43.568;22.256;2023-07-28T14:07:56;6.45;;;2.10;;
57225;SDS011;43082;43.568;22.256;2023-07-28T14:10:23;4.63;;;1.85;;
57225;SDS011;43082;43.568;22.256;2023-07-28T14:12:49;6.32;;;1.80;;
57225;SDS011;43082;43.568;22.256;2023-07-28T14:15:15;5.32;;;1.70;;
57225;SDS011;43082;43.568;22.256;2023-07-28T14:17:40;6.25;;;3.08;;
57225;SDS011;43082;43.568;22.256;2023-07-28T14:20:07;6.85;;;2.42;;
57225;SDS011;43082;43.568;22.256;2023-07-28T14:22:34;6.15;;;2.15;;
57225;SDS011;43082;43.568;22.256;2023-07-28T14:25:00;5.75;;;2.00;;
57225;SDS011;43082;43.568;22.256;2023-07-28T14:27:25;6.60;;;2.00;;
57225;SDS011;43082;43.568;22.256;2023-07-28T14:29:51;6.43;;;2.28;;
57225;SDS011;43082;43.568;22.256;2023-07-28T14:32:16;5.93;;;1.90;;
57225;SDS011;43082;43.568;22.256;2023-07-28T14:34:41;5.43;;;1.90;;
57225;SDS011;43082;43.568;22.256;2023-07-28T14:37:07;8.13;;;2.17;;
57225;SDS011;43082;43.568;22.256;2023-07-28T14:39:33;6.57;;;2.10;;
57225;SDS011;43082;43.568;22.256;2023-07-28T14:41:59;5.03;;;1.80;;
57225;SDS011;43082;43.568;22.256;2023-07-28T14:44:24;12.73;;;6.32;;